createdAt,value
2017-10-21T00:01:02.371Z,15.50
2017-10-21T00:03:29.969Z,12.33
2017-10-21T00:05:57.562Z,13.00
2017-10-21T00:08:25.151Z,13.70
2017-10-21T00:10:52.735Z,13.70
2017-10-21T00:13:20.364Z,11.97
2017-10-21T00:15:47.930Z,11.60
2017-10-21T00:18:15.592Z,11.90
2017-10-21T00:20:43.175Z,11.37
2017-10-21T00:23:10.796Z,12.20
2017-10-21T00:25:38.354Z,11.83
2017-10-21T00:28:05.938Z,11.60
2017-10-21T00:30:33.550Z,11.83
2017-10-21T00:33:01.101Z,9.23
2017-10-21T00:35:28.690Z,9.77
2017-10-21T00:37:56.246Z,9.83
2017-10-21T00:40:23.823Z,10.93
2017-10-21T00:42:51.405Z,9.47
2017-10-21T00:45:18.998Z,9.57
2017-10-21T00:47:46.726Z,9.07
2017-10-21T00:50:14.302Z,8.73
2017-10-21T00:52:41.929Z,8.00
2017-10-21T00:55:09.634Z,8.40
2017-10-21T00:57:37.198Z,8.17
2017-10-21T01:00:04.966Z,8.63
2017-10-21T01:02:32.581Z,8.90
2017-10-21T01:05:00.161Z,13.07
2017-10-21T01:07:27.736Z,8.97
2017-10-21T01:09:55.352Z,9.00
2017-10-21T01:12:22.951Z,7.73
2017-10-21T01:14:50.511Z,7.60
2017-10-21T01:17:18.104Z,8.70
2017-10-21T01:19:45.693Z,7.07
2017-10-21T01:22:13.275Z,9.07
2017-10-21T01:24:40.913Z,8.60
2017-10-21T01:27:08.710Z,8.57
2017-10-21T01:29:36.294Z,8.40
2017-10-21T01:32:04.003Z,7.97
2017-10-21T01:34:38.810Z,7.10
2017-10-21T01:37:06.818Z,7.00
2017-10-21T01:39:34.435Z,8.10
2017-10-21T01:42:02.015Z,7.67
2017-10-21T01:44:29.610Z,8.17
2017-10-21T01:46:57.208Z,8.83
2017-10-21T01:49:24.819Z,8.47
2017-10-21T01:51:52.402Z,8.17
2017-10-21T01:54:20.448Z,8.60
2017-10-21T01:56:48.494Z,7.67
2017-10-21T01:59:16.505Z,7.83
2017-10-21T02:01:44.112Z,8.90
2017-10-21T02:04:11.704Z,8.80
2017-10-21T02:06:41.262Z,7.80
2017-10-21T02:09:10.151Z,8.53
2017-10-21T02:11:37.744Z,7.50
2017-10-21T02:14:05.301Z,7.77
2017-10-21T02:16:32.913Z,7.97
2017-10-21T02:19:00.501Z,7.57
2017-10-21T02:21:28.146Z,8.57
2017-10-21T02:23:55.781Z,7.50
2017-10-21T02:26:23.374Z,8.20
2017-10-21T02:28:50.983Z,7.70
2017-10-21T02:31:18.554Z,9.00
2017-10-21T02:33:46.221Z,9.27
2017-10-21T02:36:13.821Z,8.73
2017-10-21T02:38:42.094Z,7.70
2017-10-21T02:41:09.795Z,8.60
2017-10-21T02:43:37.383Z,8.53
2017-10-21T02:46:04.948Z,7.93
2017-10-21T02:48:34.590Z,7.53
2017-10-21T02:51:02.182Z,7.47
2017-10-21T02:53:30.042Z,9.97
2017-10-21T02:55:57.814Z,8.50
2017-10-21T02:58:25.381Z,8.53
2017-10-21T03:00:52.965Z,8.50
2017-10-21T03:03:20.562Z,8.87
2017-10-21T03:05:48.150Z,8.83
2017-10-21T03:08:15.804Z,7.90
2017-10-21T03:10:43.451Z,10.10
2017-10-21T03:13:11.663Z,10.43
2017-10-21T03:15:39.251Z,9.00
2017-10-21T03:18:06.868Z,8.90
2017-10-21T03:20:34.464Z,10.57
2017-10-21T03:23:02.079Z,9.57
2017-10-21T03:25:30.171Z,9.80
2017-10-21T03:27:57.737Z,9.00
2017-10-21T03:30:25.424Z,9.07
2017-10-21T03:32:53.020Z,9.70
2017-10-21T03:35:20.673Z,9.70
2017-10-21T03:37:48.312Z,9.40
2017-10-21T03:40:15.931Z,9.30
2017-10-21T03:42:43.484Z,10.27
2017-10-21T03:45:11.543Z,10.33
2017-10-21T03:47:39.154Z,9.40
2017-10-21T03:50:06.712Z,8.53
2017-10-21T03:52:34.274Z,10.63
2017-10-21T03:55:02.000Z,9.67
2017-10-21T03:57:30.142Z,12.53
2017-10-21T03:59:57.705Z,11.60
2017-10-21T04:02:25.287Z,10.90
2017-10-21T04:04:52.847Z,10.43
2017-10-21T04:07:20.449Z,11.30
2017-10-21T04:09:48.084Z,10.53
2017-10-21T04:12:15.686Z,12.70
2017-10-21T04:14:43.252Z,13.30
2017-10-21T04:17:11.095Z,13.83
2017-10-21T04:19:38.766Z,15.60
2017-10-21T04:22:06.352Z,13.43
2017-10-21T04:24:33.962Z,13.37
2017-10-21T04:27:01.546Z,14.30
2017-10-21T04:29:29.134Z,12.50
2017-10-21T04:31:56.877Z,12.60
2017-10-21T04:34:24.517Z,12.80
2017-10-21T04:36:52.075Z,12.53
2017-10-21T04:39:19.674Z,11.53
2017-10-21T04:41:47.235Z,12.23
2017-10-21T04:44:14.837Z,10.40
2017-10-21T04:46:43.180Z,10.77
2017-10-21T04:49:11.485Z,11.30
2017-10-21T04:51:39.044Z,11.30
2017-10-21T04:54:06.934Z,11.27
2017-10-21T04:56:34.578Z,13.00
2017-10-21T04:59:02.169Z,13.63
2017-10-21T05:01:29.787Z,12.77
2017-10-21T05:03:57.372Z,12.10
2017-10-21T05:06:25.224Z,13.90
2017-10-21T05:08:52.845Z,12.53
2017-10-21T05:11:20.403Z,13.17
2017-10-21T05:13:48.000Z,12.10
2017-10-21T05:16:30.304Z,14.00
2017-10-21T05:18:57.860Z,15.43
2017-10-21T05:21:25.780Z,13.30
2017-10-21T05:23:53.363Z,12.17
2017-10-21T05:26:21.084Z,13.77
2017-10-21T05:28:48.712Z,13.50
2017-10-21T05:31:16.304Z,16.60
2017-10-21T05:33:43.880Z,14.70
2017-10-21T05:36:11.441Z,15.00
2017-10-21T05:38:38.998Z,15.90
2017-10-21T05:41:06.588Z,16.53
2017-10-21T05:43:34.161Z,17.50
2017-10-21T05:46:01.716Z,14.57
2017-10-21T05:48:29.272Z,16.67
2017-10-21T05:50:56.866Z,15.37
2017-10-21T05:53:24.452Z,15.50
2017-10-21T05:55:52.053Z,15.80
2017-10-21T05:58:19.615Z,17.90
2017-10-21T06:00:47.250Z,19.37
2017-10-21T06:03:14.896Z,20.70
2017-10-21T06:05:42.456Z,20.83
2017-10-21T06:08:10.023Z,20.70
2017-10-21T06:10:37.625Z,24.27
2017-10-21T06:13:05.254Z,24.33
2017-10-21T06:15:32.836Z,26.80
2017-10-21T06:18:00.432Z,26.87
2017-10-21T06:20:28.013Z,32.67
2017-10-21T06:22:55.606Z,43.77
2017-10-21T06:25:23.250Z,34.40
2017-10-21T06:27:50.788Z,30.10
2017-10-21T06:30:18.391Z,31.10
2017-10-21T06:32:46.354Z,29.53
2017-10-21T06:35:14.178Z,28.07
2017-10-21T06:37:41.733Z,27.33
2017-10-21T06:40:09.444Z,29.47
2017-10-21T06:42:37.399Z,30.30
2017-10-21T06:45:05.421Z,28.40
2017-10-21T06:47:33.373Z,36.47
2017-10-21T06:50:00.932Z,33.87
2017-10-21T06:52:28.473Z,40.57
2017-10-21T06:54:56.046Z,40.80
2017-10-21T06:57:23.627Z,38.90
2017-10-21T06:59:51.171Z,33.40
2017-10-21T07:02:18.741Z,42.60
2017-10-21T07:04:46.301Z,38.93
2017-10-21T07:07:13.887Z,41.17
2017-10-21T07:09:41.420Z,35.17
2017-10-21T07:12:09.014Z,30.20
2017-10-21T07:14:36.584Z,27.10
2017-10-21T07:17:04.180Z,38.33
2017-10-21T07:19:31.722Z,33.00
2017-10-21T07:21:59.312Z,33.67
2017-10-21T07:24:26.845Z,33.20
2017-10-21T07:26:54.390Z,34.83
2017-10-21T07:29:22.028Z,36.23
2017-10-21T07:31:49.587Z,30.63
2017-10-21T07:34:17.148Z,26.67
2017-10-21T07:36:44.688Z,27.23
2017-10-21T07:39:12.388Z,29.17
2017-10-21T07:41:40.082Z,30.40
2017-10-21T07:44:07.668Z,40.30
2017-10-21T07:46:35.239Z,63.63
2017-10-21T07:49:02.809Z,50.53
2017-10-21T07:51:30.854Z,51.73
2017-10-21T07:53:58.389Z,47.07
2017-10-21T07:56:25.976Z,44.47
2017-10-21T07:58:53.516Z,35.10
2017-10-21T08:01:21.093Z,33.50
2017-10-21T08:03:48.689Z,33.30
2017-10-21T08:06:16.228Z,38.87
2017-10-21T08:08:43.780Z,34.90
2017-10-21T08:11:11.406Z,47.43
2017-10-21T08:13:38.969Z,52.33
2017-10-21T08:16:06.654Z,57.63
2017-10-21T08:18:34.193Z,49.27
2017-10-21T08:21:01.737Z,53.90
2017-10-21T08:23:29.374Z,54.40
2017-10-21T08:25:56.913Z,48.13
2017-10-21T08:28:25.137Z,43.80
2017-10-21T08:30:52.716Z,39.80
2017-10-21T08:33:20.300Z,33.80
2017-10-21T08:35:47.893Z,35.43
2017-10-21T08:38:15.563Z,42.60
2017-10-21T08:40:43.128Z,42.97
2017-10-21T08:43:10.741Z,46.30
2017-10-21T08:45:38.826Z,61.37
2017-10-21T08:48:06.417Z,49.63
2017-10-21T08:50:34.063Z,46.90
2017-10-21T08:53:01.639Z,49.90
2017-10-21T08:55:29.253Z,56.10
2017-10-21T08:57:56.837Z,53.57
2017-10-21T09:00:24.418Z,50.30
2017-10-21T09:02:51.959Z,56.17
2017-10-21T09:05:19.644Z,53.63
2017-10-21T09:07:47.207Z,54.90
2017-10-21T09:10:14.784Z,54.83
2017-10-21T09:12:42.384Z,47.20
2017-10-21T09:15:10.293Z,32.43
2017-10-21T09:17:37.940Z,48.10
2017-10-21T09:20:05.534Z,56.60
2017-10-21T09:22:33.103Z,59.80
2017-10-21T09:25:00.660Z,66.23
2017-10-21T09:27:28.229Z,69.23
2017-10-21T09:29:55.776Z,51.70
2017-10-21T09:32:23.323Z,42.27
2017-10-21T09:34:50.900Z,35.33
2017-10-21T09:37:18.553Z,33.00
2017-10-21T09:39:46.130Z,53.40
2017-10-21T09:42:15.183Z,23.73
2017-10-21T09:44:42.877Z,20.57
2017-10-21T09:47:10.597Z,19.90
2017-10-21T09:49:38.223Z,20.97
2017-10-21T09:52:05.771Z,17.50
2017-10-21T09:54:33.321Z,19.53
2017-10-21T09:57:00.897Z,22.40
2017-10-21T09:59:28.463Z,24.77
2017-10-21T10:01:56.025Z,26.20
2017-10-21T10:04:23.681Z,23.53
2017-10-21T10:06:51.220Z,24.97
2017-10-21T10:09:19.103Z,23.27
2017-10-21T10:11:46.797Z,18.90
2017-10-21T10:14:14.423Z,21.00
2017-10-21T10:16:42.012Z,22.80
2017-10-21T10:19:10.593Z,22.47
2017-10-21T10:21:38.277Z,18.33
2017-10-21T10:24:05.841Z,17.60
2017-10-21T10:26:33.399Z,14.17
2017-10-21T10:29:01.664Z,16.40
2017-10-21T10:31:29.248Z,12.70
2017-10-21T10:33:56.795Z,15.00
2017-10-21T10:36:24.429Z,15.77
2017-10-21T10:38:51.993Z,16.60
2017-10-21T10:41:19.640Z,16.50
2017-10-21T10:43:47.271Z,16.87
2017-10-21T10:46:15.048Z,18.73
2017-10-21T10:48:42.663Z,19.87
2017-10-21T10:51:10.233Z,16.30
2017-10-21T10:53:37.758Z,18.07
2017-10-21T10:56:05.294Z,19.13
2017-10-21T10:58:32.909Z,15.77
2017-10-21T11:01:00.497Z,14.20
2017-10-21T11:03:28.035Z,15.80
2017-10-21T11:05:55.627Z,14.43
2017-10-21T11:08:23.289Z,16.13
2017-10-21T11:10:50.832Z,15.70
2017-10-21T11:13:18.440Z,16.20
2017-10-21T11:15:45.984Z,16.17
2017-10-21T11:18:13.510Z,15.60
2017-10-21T11:20:41.053Z,15.73
2017-10-21T11:23:08.641Z,14.00
2017-10-21T11:25:36.653Z,15.87
2017-10-21T11:28:04.179Z,17.23
2017-10-21T11:30:31.741Z,18.27
2017-10-21T11:32:59.286Z,18.10
2017-10-21T11:35:26.921Z,19.10
2017-10-21T11:37:54.763Z,18.43
2017-10-21T11:40:22.385Z,20.43
2017-10-21T11:42:49.882Z,22.47
2017-10-21T11:45:17.376Z,23.90
2017-10-21T11:47:44.861Z,25.37
2017-10-21T11:50:12.438Z,26.53
2017-10-21T11:52:39.918Z,26.07
2017-10-21T11:55:07.434Z,26.13
2017-10-21T11:57:35.012Z,26.43
2017-10-21T12:00:02.795Z,26.87
2017-10-21T12:02:30.524Z,28.77
2017-10-21T12:04:58.053Z,26.23
2017-10-21T12:07:25.704Z,26.67
2017-10-21T12:09:53.251Z,25.17
2017-10-21T12:12:21.468Z,25.27
2017-10-21T12:14:49.000Z,25.57
2017-10-21T12:17:16.527Z,24.87
2017-10-21T12:19:44.071Z,25.80
2017-10-21T12:22:11.708Z,22.30
2017-10-21T12:24:39.245Z,24.70
2017-10-21T12:27:06.939Z,21.87
2017-10-21T12:29:34.479Z,22.27
2017-10-21T12:32:01.994Z,23.50
2017-10-21T12:34:29.522Z,24.50
2017-10-21T12:36:57.064Z,20.70
2017-10-21T12:39:24.863Z,23.43
2017-10-21T12:41:52.650Z,23.43
2017-10-21T12:44:20.526Z,21.73
2017-10-21T12:46:48.087Z,21.30
2017-10-21T12:49:15.657Z,21.97
2017-10-21T12:51:43.385Z,21.43
2017-10-21T12:54:11.068Z,21.43
2017-10-21T12:56:38.654Z,22.10
2017-10-21T12:59:06.204Z,22.50
2017-10-21T13:01:33.749Z,22.40
2017-10-21T13:04:01.340Z,22.03
2017-10-21T13:06:28.909Z,22.80
2017-10-21T13:08:56.465Z,22.20
2017-10-21T13:11:24.102Z,21.03
2017-10-21T13:13:51.630Z,21.07
2017-10-21T13:16:19.160Z,21.77
2017-10-21T13:18:46.693Z,21.53
2017-10-21T13:21:14.221Z,20.47
2017-10-21T13:23:41.781Z,20.27
2017-10-21T13:26:09.386Z,23.27
2017-10-21T13:28:37.135Z,23.80
2017-10-21T13:31:04.741Z,21.13
2017-10-21T13:33:32.300Z,21.00
2017-10-21T13:35:59.829Z,21.33
2017-10-21T13:38:27.566Z,21.80
2017-10-21T13:40:55.099Z,20.60
2017-10-21T13:43:22.810Z,20.33
2017-10-21T13:45:50.390Z,19.93
2017-10-21T13:48:17.914Z,19.47
2017-10-21T13:50:45.443Z,20.00
2017-10-21T13:53:13.065Z,17.33
2017-10-21T13:55:40.938Z,20.47
2017-10-21T13:58:08.498Z,19.50
2017-10-21T14:00:36.060Z,19.50
2017-10-21T14:03:03.621Z,21.43
2017-10-21T14:05:31.208Z,16.63
2017-10-21T14:07:59.576Z,20.17
2017-10-21T14:10:27.149Z,20.00
2017-10-21T14:12:55.156Z,20.40
2017-10-21T14:15:22.714Z,19.70
2017-10-21T14:17:50.266Z,18.73
2017-10-21T14:20:18.086Z,19.90
2017-10-21T14:22:45.613Z,20.50
2017-10-21T14:25:13.159Z,21.27
2017-10-21T14:27:40.717Z,20.30
2017-10-21T14:30:08.237Z,20.83
2017-10-21T14:32:35.773Z,20.93
2017-10-21T14:35:03.355Z,21.10
2017-10-21T14:37:32.012Z,22.33
2017-10-21T14:39:59.560Z,19.00
2017-10-21T14:42:27.104Z,20.87
2017-10-21T14:44:54.720Z,19.53
2017-10-21T14:47:22.279Z,19.30
2017-10-21T14:49:50.382Z,20.47
2017-10-21T14:52:17.959Z,20.10
2017-10-21T14:54:45.530Z,19.40
2017-10-21T14:57:13.596Z,21.13
2017-10-21T14:59:41.178Z,21.00
2017-10-21T15:02:08.896Z,19.20
2017-10-21T15:04:36.444Z,22.30
2017-10-21T15:07:03.976Z,22.60
2017-10-21T15:09:31.557Z,21.03
2017-10-21T15:11:59.088Z,22.97
2017-10-21T15:14:26.653Z,23.50
2017-10-21T15:16:54.360Z,24.70
2017-10-21T15:19:22.006Z,24.63
2017-10-21T15:21:49.532Z,22.77
2017-10-21T15:24:17.247Z,22.40
2017-10-21T15:26:44.788Z,22.40
2017-10-21T15:29:12.387Z,22.73
2017-10-21T15:31:39.929Z,23.20
2017-10-21T15:34:07.449Z,24.90
2017-10-21T15:36:34.985Z,23.43
2017-10-21T15:39:02.563Z,23.20
2017-10-21T15:41:30.191Z,25.20
2017-10-21T15:43:57.730Z,24.37
2017-10-21T15:46:25.311Z,27.43
2017-10-21T15:48:52.853Z,25.57
2017-10-21T15:51:20.552Z,25.00
2017-10-21T15:53:48.767Z,25.87
2017-10-21T15:56:17.454Z,29.97
2017-10-21T15:58:45.109Z,30.00
2017-10-21T16:01:12.647Z,24.37
2017-10-21T16:03:40.178Z,26.47
2017-10-21T16:06:07.741Z,28.57
2017-10-21T16:08:35.272Z,26.90
2017-10-21T16:11:02.801Z,23.40
2017-10-21T16:13:30.399Z,25.17
2017-10-21T16:15:57.955Z,24.20
2017-10-21T16:18:25.548Z,27.47
2017-10-21T16:20:53.080Z,28.33
2017-10-21T16:23:20.689Z,30.70
2017-10-21T16:25:48.280Z,33.30
2017-10-21T16:28:16.052Z,27.40
2017-10-21T16:30:43.602Z,25.93
2017-10-21T16:33:11.095Z,27.50
2017-10-21T16:35:38.721Z,26.87
2017-10-21T16:38:06.345Z,25.13
2017-10-21T16:40:33.966Z,42.23
2017-10-21T16:43:01.508Z,38.27
2017-10-21T16:45:29.059Z,28.30
2017-10-21T16:47:56.830Z,25.43
2017-10-21T16:50:24.351Z,30.13
2017-10-21T16:52:51.908Z,23.80
2017-10-21T16:55:19.441Z,31.67
2017-10-21T16:57:47.005Z,24.10
2017-10-21T17:00:14.565Z,23.67
2017-10-21T17:02:42.117Z,28.10
2017-10-21T17:05:09.953Z,38.07
2017-10-21T17:07:37.529Z,33.73
2017-10-21T17:10:05.076Z,35.07
2017-10-21T17:12:32.900Z,36.23
2017-10-21T17:15:00.477Z,32.30
2017-10-21T17:17:28.441Z,30.67
2017-10-21T17:19:56.005Z,28.87
2017-10-21T17:22:23.532Z,25.87
2017-10-21T17:24:51.183Z,21.37
2017-10-21T17:27:18.730Z,21.13
2017-10-21T17:29:46.286Z,19.07
2017-10-21T17:32:13.834Z,24.10
2017-10-21T17:34:41.378Z,28.70
2017-10-21T17:37:09.061Z,27.40
2017-10-21T17:39:36.648Z,25.37
2017-10-21T17:42:04.172Z,22.17
2017-10-21T17:44:31.753Z,22.07
2017-10-21T17:46:59.289Z,21.40
2017-10-21T17:49:26.948Z,32.43
2017-10-21T17:51:54.771Z,25.00
2017-10-21T17:54:22.621Z,26.90
2017-10-21T17:56:50.187Z,32.37
2017-10-21T17:59:17.764Z,26.67
2017-10-21T18:01:45.678Z,22.90
2017-10-21T18:04:13.224Z,23.50
2017-10-21T18:06:40.823Z,22.37
2017-10-21T18:09:10.245Z,21.60
2017-10-21T18:11:37.796Z,20.90
2017-10-21T18:14:05.358Z,20.00
2017-10-21T18:16:32.919Z,26.80
2017-10-21T18:19:00.474Z,44.43
2017-10-21T18:21:28.033Z,37.83
2017-10-21T18:23:55.669Z,36.77
2017-10-21T18:26:23.239Z,39.97
2017-10-21T18:28:50.848Z,38.67
2017-10-21T18:31:18.432Z,31.67
2017-10-21T18:33:46.010Z,23.33
2017-10-21T18:36:13.585Z,22.30
2017-10-21T18:38:41.189Z,26.50
2017-10-21T18:41:08.812Z,28.10
2017-10-21T18:43:36.628Z,27.40
2017-10-21T18:46:04.179Z,24.77
2017-10-21T18:48:31.715Z,20.80
2017-10-21T18:51:00.753Z,20.63
2017-10-21T18:53:28.324Z,23.10
2017-10-21T18:55:56.462Z,20.57
2017-10-21T18:58:24.069Z,21.10
2017-10-21T19:00:51.620Z,18.50
2017-10-21T19:03:19.190Z,17.10
2017-10-21T19:05:46.780Z,15.50
2017-10-21T19:08:14.315Z,21.13
2017-10-21T19:10:41.876Z,26.23
2017-10-21T19:13:09.543Z,16.30
2017-10-21T19:15:37.121Z,18.73
2017-10-21T19:18:05.065Z,21.90
2017-10-21T19:20:32.789Z,21.40
2017-10-21T19:23:00.342Z,25.70
2017-10-21T19:25:28.032Z,21.90
2017-10-21T19:27:55.594Z,20.20
2017-10-21T19:30:23.165Z,15.43
2017-10-21T19:32:50.761Z,15.77
2017-10-21T19:35:18.374Z,25.40
2017-10-21T19:37:45.998Z,20.10
2017-10-21T19:40:13.614Z,27.37
2017-10-21T19:42:41.173Z,26.50
2017-10-21T19:45:08.753Z,20.37
2017-10-21T19:47:36.529Z,15.93
2017-10-21T19:50:04.105Z,14.77
2017-10-21T19:52:31.695Z,13.50
2017-10-21T19:54:59.338Z,14.70
2017-10-21T19:57:27.101Z,13.43
2017-10-21T19:59:54.659Z,12.67
2017-10-21T20:02:22.290Z,13.67
2017-10-21T20:04:49.866Z,13.83
2017-10-21T20:07:17.601Z,15.00
2017-10-21T20:09:45.185Z,41.40
2017-10-21T20:12:12.753Z,27.10
2017-10-21T20:14:40.309Z,26.00
2017-10-21T20:17:07.956Z,27.83
2017-10-21T20:19:35.529Z,26.23
2017-10-21T20:22:03.097Z,17.67
2017-10-21T20:24:30.683Z,17.13
2017-10-21T20:26:58.257Z,15.87
2017-10-21T20:29:26.581Z,15.60
2017-10-21T20:31:54.218Z,15.50
2017-10-21T20:34:23.119Z,21.03
2017-10-21T20:36:50.882Z,18.90
2017-10-21T20:39:18.492Z,17.47
2017-10-21T20:41:46.107Z,19.83
2017-10-21T20:44:13.668Z,15.60
2017-10-21T20:46:41.260Z,16.17
2017-10-21T20:49:09.852Z,17.27
2017-10-21T20:51:37.406Z,13.47
2017-10-21T20:54:05.315Z,13.03
2017-10-21T20:56:32.890Z,14.80
2017-10-21T20:59:00.465Z,17.00
2017-10-21T21:01:28.057Z,20.53
2017-10-21T21:03:55.634Z,24.20
2017-10-21T21:06:23.324Z,19.90
2017-10-21T21:08:50.885Z,24.83
2017-10-21T21:11:18.449Z,18.73
2017-10-21T21:13:46.140Z,18.00
2017-10-21T21:16:13.700Z,19.60
2017-10-21T21:18:41.246Z,17.50
2017-10-21T21:21:09.554Z,17.03
2017-10-21T21:23:37.170Z,23.07
2017-10-21T21:26:04.741Z,16.20
2017-10-21T21:28:32.301Z,19.37
2017-10-21T21:30:59.865Z,19.60
2017-10-21T21:33:27.596Z,21.60
2017-10-21T21:35:55.156Z,23.47
2017-10-21T21:38:22.781Z,19.50
2017-10-21T21:40:50.437Z,17.93
2017-10-21T21:43:18.090Z,19.23
2017-10-21T21:45:45.635Z,20.17
2017-10-21T21:48:13.271Z,21.10
2017-10-21T21:50:40.831Z,21.07
2017-10-21T21:53:08.416Z,20.83
2017-10-21T21:55:35.985Z,18.00
2017-10-21T21:58:03.545Z,17.80
2017-10-21T22:00:31.130Z,17.70
2017-10-21T22:02:59.654Z,15.33
2017-10-21T22:05:27.317Z,14.80
2017-10-21T22:07:54.914Z,16.23
2017-10-21T22:10:23.043Z,16.13
2017-10-21T22:12:50.602Z,15.97
2017-10-21T22:15:18.235Z,15.00
2017-10-21T22:17:45.855Z,14.53
2017-10-21T22:20:13.421Z,14.63
2017-10-21T22:22:40.981Z,18.57
2017-10-21T22:25:08.664Z,19.27
2017-10-21T22:27:36.215Z,17.97
2017-10-21T22:30:03.767Z,18.63
2017-10-21T22:32:32.130Z,20.00
2017-10-21T22:34:59.805Z,18.80
2017-10-21T22:37:27.385Z,20.30
2017-10-21T22:39:54.968Z,18.70
2017-10-21T22:42:22.541Z,25.23
2017-10-21T22:44:50.380Z,23.53
2017-10-21T22:47:17.978Z,25.40
2017-10-21T22:49:45.521Z,22.20
2017-10-21T22:52:13.069Z,20.13
2017-10-21T22:54:40.644Z,15.93
2017-10-21T22:57:08.333Z,13.53
2017-10-21T22:59:35.890Z,15.63
2017-10-21T23:02:03.466Z,19.37
2017-10-21T23:04:31.059Z,18.57
2017-10-21T23:06:58.606Z,22.23
2017-10-21T23:09:26.288Z,20.77
2017-10-21T23:11:53.988Z,22.23
2017-10-21T23:14:21.547Z,19.27
2017-10-21T23:16:49.124Z,20.03
2017-10-21T23:19:16.680Z,17.07
2017-10-21T23:21:44.262Z,17.33
2017-10-21T23:24:11.797Z,20.23
2017-10-21T23:26:39.350Z,19.27
2017-10-21T23:29:07.052Z,18.13
2017-10-21T23:31:34.621Z,18.00
2017-10-21T23:34:02.185Z,19.10
2017-10-21T23:36:29.723Z,17.97
2017-10-21T23:38:57.257Z,21.33
2017-10-21T23:41:24.861Z,22.03
2017-10-21T23:43:52.390Z,17.07
2017-10-21T23:46:19.985Z,14.83
2017-10-21T23:48:47.591Z,17.20
2017-10-21T23:51:15.200Z,16.90
2017-10-21T23:53:42.733Z,16.40
2017-10-21T23:56:10.359Z,15.50
2017-10-21T23:58:37.938Z,16.50
